LEGTLEAL

Guest
Details From LEGT - Getafe
To LEAL - Alicante
Flight Number -
Tags generated
Created
Modified
Stats Distance 195 nm / 362 km
Max Altitude 19,000 ft / 5,791 m
Waypoints 3
Social Downloads 0
Likes 0
Share VATSIM

Download

Looking for another format? Having issues loading an existing format? Contact us
Advertisement - Login to hide

Notes

Basic altitude profile: - Ascent Rate: 2500ft/min - Ascent Speed: 250kts - Cruise Altitude: 35000ft - Cruise Speed: 420kts - Descent Rate: 1500ft/min - Descent Speed: 250kts

Route

LEGT MOTIL LEAL

ID Type Via Altitude Latitude Longitude Leg Dist Tot Dist Heading (true) Name
O LEGT APT - 0 ft / 0 m 40.29315˚ -3.72248˚ - 0 nm - Getafe
MOTIL FIX - 19,000 ft / 5,791 m 39.53879˚ -1.74519˚ 101 nm 101 nm 116° / 117° -
O LEAL APT - 0 ft / 0 m 38.28217˚ -0.55816˚ 93 nm 195 nm 143° / 144° Alicante

Altitude Profile

Advertisement - Login to hide

Weather


0- 5 10 15 20 25 30 35+ Temperature / ° C

Clouds and Precipitation
Forecast for 2017-12-11 18:00 UTC. Updated 27 minutes ago

Ground ~20,000 ft ~40,000 ft Winds

LEGT

Details ICAO LEGT
Name Getafe
Region Spain
Timezone Europe/Madrid (UTC+1.0)
Stats Elevation 2,029 ft / 618 m (AMSL)
Location 40.293152° -3.722481°
Runways 2
Magnetic Variation 0.727° W

METAR

LEGT 111700Z 25013KT 9999 FEW030 SCT040 07/03 Q0999

Decode

TAF

Not found

Departure Runways

ID Width Length Bearing (true) Bearing (mag) Surface Threshold Offset Overrun Length
05 197 ft / 60 m 8,130 ft / 2,478 m 45.08° 45.81° Asphalt 0 ft / 0 m 410 ft / 125 m
05R 98 ft / 30 m 3,093 ft / 943 m 44.78° 45.51° Dirt 0 ft / 0 m 0 ft / 0 m
23 197 ft / 60 m 8,130 ft / 2,478 m 225.10° 225.83° Asphalt 0 ft / 0 m 492 ft / 150 m
23L 98 ft / 30 m 3,093 ft / 943 m 224.79° 225.52° Dirt 0 ft / 0 m 0 ft / 0 m

LEAL

Details ICAO LEAL (ALC)
Name Alicante
Region Spain
Timezone Europe/Madrid (UTC+1.0)
Stats Elevation 141 ft / 43 m (AMSL)
Location 38.282169° -0.558157°
Runways 1
Magnetic Variation 0.183° E

METAR

LEAL 111730Z 25006KT 200V280 9999 FEW015 12/02 Q1001 NOSIG

Decode

TAF

TAF TAF LEAL 111100Z 1112/1212 29015KT 9999 FEW030 SCT050 TX16/1212Z TN06/1206Z TEMPO 1112/1114 30018G30KT BECMG 1116/1119 30007KT

Decode

Destination Runways

ID Width Length Bearing (true) Bearing (mag) Surface Threshold Offset Overrun Length
10 148 ft / 45 m 9,799 ft / 2,987 m 100.07° 99.89° Asphalt 0 ft / 0 m 164 ft / 50 m
28 148 ft / 45 m 9,799 ft / 2,987 m 280.09° 279.91° Asphalt 0 ft / 0 m 197 ft / 60 m

Approach Navaids

Runway Type Ident Frequency Range Bearing (true) Bearing (mag) Slope Elevation
10 Localiser IAT 110.30 MHz 18 nm / 33 km 100.09° 99.91° - 29 ft / 9 m (AMSL)
10 Glidescope IAT 110.30 MHz 10 nm / 19 km 100.09° 99.91° 3.00° 129 ft / 39 m (AMSL)
10 DME IAT 110.30 MHz 18 nm / 33 km - - - 129 ft / 39 m (AMSL)